createdAt,value
2018-11-07T00:00:15.760Z,10.2
2018-11-07T00:03:15.509Z,10.2
2018-11-07T00:06:15.888Z,10.2
2018-11-07T00:09:15.100Z,10.3
2018-11-07T00:12:15.206Z,10.3
2018-11-07T00:15:15.405Z,10.2
2018-11-07T00:18:15.670Z,10.1
2018-11-07T00:21:15.081Z,10.0
2018-11-07T00:24:15.623Z,9.9
2018-11-07T00:27:15.282Z,9.8
2018-11-07T00:30:15.406Z,9.8
2018-11-07T00:33:15.610Z,9.8
2018-11-07T00:36:15.922Z,9.6
2018-11-07T00:39:15.609Z,9.5
2018-11-07T00:42:15.222Z,9.4
2018-11-07T00:45:15.070Z,9.2
2018-11-07T00:48:15.253Z,9.1
2018-11-07T00:51:15.546Z,9.0
2018-11-07T00:54:15.866Z,8.9
2018-11-07T00:57:15.354Z,9.0
2018-11-07T01:00:15.681Z,9.0
2018-11-07T01:03:15.816Z,9.1
2018-11-07T01:06:15.037Z,9.2
2018-11-07T01:09:20.238Z,9.4
2018-11-07T01:12:15.103Z,9.5
2018-11-07T01:15:15.138Z,9.6
2018-11-07T01:18:15.320Z,9.8
2018-11-07T01:21:15.477Z,9.9
2018-11-07T01:24:15.614Z,9.9
2018-11-07T01:27:15.802Z,10.0
2018-11-07T01:30:15.036Z,10.1
2018-11-07T01:33:14.916Z,10.1
2018-11-07T01:36:15.920Z,10.1
2018-11-07T01:39:15.800Z,10.2
2018-11-07T01:42:15.106Z,10.2
2018-11-07T01:45:15.220Z,10.2
2018-11-07T01:48:15.633Z,10.3
2018-11-07T01:51:14.936Z,10.3
2018-11-07T01:54:15.993Z,10.3
2018-11-07T01:57:15.197Z,10.3
2018-11-07T02:00:15.380Z,10.4
2018-11-07T02:03:15.012Z,10.4
2018-11-07T02:06:15.470Z,10.4
2018-11-07T02:09:15.522Z,10.4
2018-11-07T02:12:15.683Z,10.4
2018-11-07T02:15:15.016Z,10.4
2018-11-07T02:18:15.976Z,10.4
2018-11-07T02:21:15.235Z,10.4
2018-11-07T02:24:15.458Z,10.5
2018-11-07T02:27:15.665Z,10.4
2018-11-07T02:30:15.101Z,10.4
2018-11-07T02:33:15.461Z,10.3
2018-11-07T02:36:15.744Z,10.3
2018-11-07T02:39:14.896Z,10.2
2018-11-07T02:42:15.951Z,10.1
2018-11-07T02:45:15.266Z,10.0
2018-11-07T02:48:15.687Z,9.9
2018-11-07T02:51:15.862Z,9.8
2018-11-07T02:54:15.390Z,9.8
2018-11-07T02:57:15.373Z,9.7
2018-11-07T03:00:15.747Z,9.7
2018-11-07T03:03:15.108Z,9.7
2018-11-07T03:06:15.325Z,9.7
2018-11-07T03:09:15.835Z,9.6
2018-11-07T03:12:15.076Z,9.6
2018-11-07T03:15:15.129Z,9.6
2018-11-07T03:18:15.648Z,9.6
2018-11-07T03:21:15.930Z,9.6
2018-11-07T03:24:15.275Z,9.6
2018-11-07T03:27:15.379Z,9.6
2018-11-07T03:30:15.628Z,9.6
2018-11-07T03:33:15.791Z,9.6
2018-11-07T03:36:15.264Z,9.6
2018-11-07T03:39:15.420Z,9.7
2018-11-07T03:42:15.732Z,9.7
2018-11-07T03:45:15.037Z,9.7
2018-11-07T03:48:15.589Z,9.8
2018-11-07T03:51:15.492Z,9.7
2018-11-07T03:54:15.840Z,9.6
2018-11-07T03:57:15.371Z,9.6
2018-11-07T04:00:15.813Z,9.6
2018-11-07T04:03:15.314Z,9.6
2018-11-07T04:06:15.663Z,9.6
2018-11-07T04:09:15.276Z,9.6
2018-11-07T04:12:15.547Z,9.5
2018-11-07T04:15:15.155Z,9.4
2018-11-07T04:18:15.684Z,9.2
2018-11-07T04:21:15.946Z,9.1
2018-11-07T04:24:15.076Z,9.0
2018-11-07T04:27:15.008Z,9.0
2018-11-07T04:30:15.415Z,9.0
2018-11-07T04:33:15.851Z,9.1
2018-11-07T04:36:15.276Z,9.1
2018-11-07T04:39:15.989Z,9.0
2018-11-07T04:42:15.536Z,8.9
2018-11-07T04:45:15.528Z,8.9
2018-11-07T04:48:15.671Z,9.0
2018-11-07T04:51:15.094Z,9.1
2018-11-07T04:54:15.204Z,9.2
2018-11-07T04:57:15.302Z,9.2
2018-11-07T05:00:15.797Z,9.3
2018-11-07T05:03:15.435Z,9.3
2018-11-07T05:06:15.714Z,9.4
2018-11-07T05:09:15.012Z,9.2
2018-11-07T05:12:15.119Z,9.1
2018-11-07T05:15:15.206Z,9.0
2018-11-07T05:18:15.216Z,9.0
2018-11-07T05:21:15.024Z,9.1
2018-11-07T05:24:15.144Z,9.1
2018-11-07T05:27:15.600Z,9.0
2018-11-07T05:30:15.833Z,9.0
2018-11-07T05:33:15.639Z,9.0
2018-11-07T05:36:15.100Z,9.0
2018-11-07T05:39:15.152Z,9.0
2018-11-07T05:42:15.322Z,9.0
2018-11-07T05:45:16.041Z,9.0
2018-11-07T05:48:15.894Z,9.0
2018-11-07T05:51:15.842Z,9.0
2018-11-07T05:54:16.289Z,9.1
2018-11-07T05:57:15.016Z,9.1
2018-11-07T06:00:16.140Z,9.2
2018-11-07T06:03:15.723Z,9.2
2018-11-07T06:06:15.382Z,9.3
2018-11-07T06:09:15.880Z,9.3
2018-11-07T06:12:15.041Z,9.4
2018-11-07T06:15:15.053Z,9.4
2018-11-07T06:18:15.584Z,9.4
2018-11-07T06:21:15.109Z,9.5
2018-11-07T06:24:15.137Z,9.4
2018-11-07T06:27:15.278Z,9.4
2018-11-07T06:30:15.703Z,9.3
2018-11-07T06:33:15.082Z,9.2
2018-11-07T06:36:15.058Z,9.2
2018-11-07T06:39:14.996Z,9.1
2018-11-07T06:42:15.065Z,9.0
2018-11-07T06:45:15.999Z,8.9
2018-11-07T06:48:15.318Z,8.9
2018-11-07T06:51:15.877Z,8.9
2018-11-07T06:54:15.417Z,8.9
2018-11-07T06:57:15.952Z,8.9
2018-11-07T07:00:15.271Z,8.8
2018-11-07T07:03:15.447Z,8.8
2018-11-07T07:06:15.859Z,8.8
2018-11-07T07:09:15.705Z,8.8
2018-11-07T07:12:15.102Z,8.8
2018-11-07T07:15:15.523Z,8.8
2018-11-07T07:18:15.235Z,8.7
2018-11-07T07:21:15.819Z,8.7
2018-11-07T07:24:15.190Z,8.8
2018-11-07T07:27:15.331Z,8.9
2018-11-07T07:30:16.140Z,9.0
2018-11-07T07:33:15.306Z,9.0
2018-11-07T07:36:15.036Z,9.1
2018-11-07T07:39:15.252Z,9.2
2018-11-07T07:42:15.320Z,9.3
2018-11-07T07:45:15.708Z,9.4
2018-11-07T07:48:15.415Z,9.4
2018-11-07T07:51:15.817Z,9.4
2018-11-07T07:54:15.278Z,9.5
2018-11-07T07:57:15.198Z,9.6
2018-11-07T08:00:15.263Z,9.6
2018-11-07T08:03:15.718Z,9.7
2018-11-07T08:06:15.025Z,9.7
2018-11-07T08:09:15.111Z,9.8
2018-11-07T08:12:15.419Z,9.9
2018-11-07T08:15:15.947Z,10.0
2018-11-07T08:18:15.339Z,10.1
2018-11-07T08:21:15.598Z,10.0
2018-11-07T08:24:15.840Z,9.9
2018-11-07T08:27:15.454Z,9.9
2018-11-07T08:30:15.329Z,10.0
2018-11-07T08:33:14.945Z,10.0
2018-11-07T08:36:17.073Z,10.1
2018-11-07T08:39:16.017Z,10.2
2018-11-07T08:42:15.539Z,10.2
2018-11-07T08:45:15.406Z,10.3
2018-11-07T08:48:15.053Z,10.2
2018-11-07T08:51:15.250Z,10.3
2018-11-07T08:54:15.464Z,10.4
2018-11-07T08:57:15.005Z,10.5
2018-11-07T09:00:15.055Z,10.6
2018-11-07T09:03:15.213Z,10.7
2018-11-07T09:06:15.314Z,10.8
2018-11-07T09:09:15.264Z,10.7
2018-11-07T09:12:15.570Z,10.8
2018-11-07T09:15:15.030Z,10.8
2018-11-07T09:18:15.254Z,10.9
2018-11-07T09:21:15.543Z,11.0
2018-11-07T09:24:15.987Z,11.2
2018-11-07T09:27:15.118Z,11.3
2018-11-07T09:30:15.594Z,11.4
2018-11-07T09:33:15.176Z,11.7
2018-11-07T09:36:15.158Z,11.9
2018-11-07T09:39:15.367Z,12.0
2018-11-07T09:42:15.735Z,12.2
2018-11-07T09:45:16.003Z,12.4
2018-11-07T09:48:15.777Z,12.5
2018-11-07T09:51:15.504Z,12.5
2018-11-07T09:54:15.794Z,12.3
2018-11-07T09:57:15.034Z,12.3
2018-11-07T10:00:15.446Z,12.2
2018-11-07T10:03:15.776Z,12.1
2018-11-07T10:06:15.297Z,12.0
2018-11-07T10:09:15.918Z,12.0
2018-11-07T10:12:15.376Z,12.6
2018-11-07T10:15:15.246Z,13.6
2018-11-07T10:18:15.600Z,14.9
2018-11-07T10:21:15.045Z,16.2
2018-11-07T10:24:15.292Z,17.6
2018-11-07T10:27:15.342Z,18.6
2018-11-07T10:30:16.211Z,19.4
2018-11-07T10:33:15.549Z,20.0
2018-11-07T10:36:15.155Z,20.7
2018-11-07T10:39:15.125Z,21.1
2018-11-07T10:42:15.506Z,21.0
2018-11-07T10:45:15.732Z,21.3
2018-11-07T10:48:15.137Z,21.2
2018-11-07T10:51:15.556Z,21.3
2018-11-07T10:54:15.858Z,21.4
2018-11-07T10:57:15.287Z,21.7
2018-11-07T11:00:15.152Z,21.3
2018-11-07T11:03:15.825Z,20.9
2018-11-07T11:06:15.519Z,20.6
2018-11-07T11:09:15.076Z,20.2
2018-11-07T11:12:15.264Z,19.9
2018-11-07T11:15:15.804Z,19.6
2018-11-07T11:18:15.577Z,19.3
2018-11-07T11:21:15.007Z,19.1
2018-11-07T11:24:14.957Z,19.0
2018-11-07T11:27:15.125Z,18.8
2018-11-07T11:30:15.035Z,18.4
2018-11-07T11:33:15.057Z,18.3
2018-11-07T11:36:15.012Z,18.4
2018-11-07T11:39:15.222Z,18.6
2018-11-07T11:42:15.394Z,18.6
2018-11-07T11:45:15.750Z,18.6
2018-11-07T11:48:15.135Z,18.6
2018-11-07T11:51:15.383Z,18.4
2018-11-07T11:54:15.553Z,18.4
2018-11-07T11:57:15.251Z,18.3
2018-11-07T12:00:15.219Z,18.4
2018-11-07T12:03:15.076Z,18.4
2018-11-07T12:06:15.043Z,18.4
2018-11-07T12:09:15.628Z,18.4
2018-11-07T12:12:15.918Z,18.4
2018-11-07T12:15:15.592Z,18.4
2018-11-07T12:18:15.908Z,18.3
2018-11-07T12:21:15.107Z,18.4
2018-11-07T12:24:15.238Z,18.3
2018-11-07T12:27:15.379Z,18.2
2018-11-07T12:30:15.160Z,18.4
2018-11-07T12:33:15.341Z,18.3
2018-11-07T12:36:15.500Z,18.3
2018-11-07T12:39:15.361Z,18.3
2018-11-07T12:42:15.517Z,18.5
2018-11-07T12:45:15.050Z,18.5
2018-11-07T12:48:15.184Z,18.5
2018-11-07T12:51:15.344Z,18.5
2018-11-07T12:54:15.392Z,18.3
2018-11-07T12:57:15.688Z,18.2
2018-11-07T13:00:15.632Z,18.0
2018-11-07T13:03:15.316Z,17.8
2018-11-07T13:06:15.427Z,17.6
2018-11-07T13:09:15.412Z,17.4
2018-11-07T13:12:15.003Z,17.4
2018-11-07T13:15:15.154Z,17.5
2018-11-07T13:18:15.556Z,17.5
2018-11-07T13:21:15.900Z,17.7
2018-11-07T13:24:15.420Z,17.7
2018-11-07T13:27:15.077Z,17.7
2018-11-07T13:30:14.947Z,17.7
2018-11-07T13:33:15.321Z,17.9
2018-11-07T13:36:15.647Z,18.1
2018-11-07T13:39:16.455Z,18.1
2018-11-07T13:42:15.343Z,18.2
2018-11-07T13:45:15.584Z,18.2
2018-11-07T13:48:15.393Z,18.2
2018-11-07T13:51:15.677Z,18.2
2018-11-07T13:54:15.234Z,18.2
2018-11-07T13:57:15.291Z,18.2
2018-11-07T14:00:15.245Z,18.0
2018-11-07T14:03:15.442Z,17.9
2018-11-07T14:06:15.276Z,17.7
2018-11-07T14:09:15.938Z,17.5
2018-11-07T14:12:15.296Z,17.4
2018-11-07T14:15:15.330Z,17.2
2018-11-07T14:18:15.537Z,17.0
2018-11-07T14:21:15.224Z,17.0
2018-11-07T14:24:15.177Z,16.9
2018-11-07T14:27:15.329Z,16.8
2018-11-07T14:30:15.385Z,16.7
2018-11-07T14:33:15.215Z,16.6
2018-11-07T14:36:15.470Z,16.5
2018-11-07T14:39:15.654Z,16.4
2018-11-07T14:42:14.989Z,16.4
2018-11-07T14:45:15.319Z,16.3
2018-11-07T14:48:15.364Z,16.3
2018-11-07T14:51:15.458Z,16.2
2018-11-07T14:54:15.959Z,16.2
2018-11-07T14:57:15.777Z,16.1
2018-11-07T15:00:15.234Z,16.1
2018-11-07T15:03:15.370Z,16.0
2018-11-07T15:06:15.616Z,15.9
2018-11-07T15:09:15.084Z,15.9
2018-11-07T15:12:15.217Z,15.8
2018-11-07T15:15:16.017Z,15.7
2018-11-07T15:18:15.473Z,15.7
2018-11-07T15:21:15.417Z,15.7
2018-11-07T15:24:15.533Z,15.6
2018-11-07T15:27:15.814Z,15.5
2018-11-07T15:30:15.104Z,15.4
2018-11-07T15:33:15.277Z,15.3
2018-11-07T15:36:15.424Z,15.2
2018-11-07T15:39:15.765Z,15.2
2018-11-07T15:42:15.491Z,15.2
2018-11-07T15:45:15.052Z,15.1
2018-11-07T15:48:15.157Z,15.1
2018-11-07T15:51:15.223Z,15.0
2018-11-07T15:54:15.250Z,15.0
2018-11-07T15:57:15.579Z,15.0
2018-11-07T16:00:15.663Z,14.9
2018-11-07T16:03:15.886Z,15.0
2018-11-07T16:06:15.830Z,14.9
2018-11-07T16:09:15.417Z,14.9
2018-11-07T16:12:15.544Z,14.9
2018-11-07T16:15:15.618Z,14.9
2018-11-07T16:18:15.932Z,14.9
2018-11-07T16:21:15.082Z,14.9
2018-11-07T16:24:15.217Z,14.9
2018-11-07T16:27:15.631Z,15.0
2018-11-07T16:30:15.185Z,14.9
2018-11-07T16:33:15.255Z,14.9
2018-11-07T16:36:15.062Z,15.0
2018-11-07T16:39:15.381Z,14.9
2018-11-07T16:42:15.370Z,14.9
2018-11-07T16:45:15.837Z,14.9
2018-11-07T16:48:15.761Z,14.9
2018-11-07T16:51:15.555Z,15.0
2018-11-07T16:54:15.428Z,15.0
2018-11-07T16:57:15.918Z,15.0
2018-11-07T17:00:15.178Z,14.9
2018-11-07T17:03:15.313Z,14.9
2018-11-07T17:06:15.312Z,14.9
2018-11-07T17:09:15.448Z,14.9
2018-11-07T17:12:15.830Z,14.9
2018-11-07T17:15:15.473Z,14.8
2018-11-07T17:18:15.854Z,14.8
2018-11-07T17:21:14.972Z,14.7
2018-11-07T17:24:15.251Z,14.7
2018-11-07T17:27:16.004Z,14.5
2018-11-07T17:30:15.486Z,14.4
2018-11-07T17:33:15.324Z,14.1
2018-11-07T17:36:15.601Z,14.0
2018-11-07T17:39:15.754Z,13.8
2018-11-07T17:42:15.802Z,13.7
2018-11-07T17:45:15.717Z,13.7
2018-11-07T17:48:15.903Z,13.6
2018-11-07T17:51:15.854Z,13.5
2018-11-07T17:54:15.502Z,13.5
2018-11-07T17:57:15.794Z,13.4
2018-11-07T18:00:15.091Z,13.4
2018-11-07T18:03:15.906Z,13.3
2018-11-07T18:06:15.272Z,13.2
2018-11-07T18:09:15.624Z,13.2
2018-11-07T18:12:15.063Z,13.1
2018-11-07T18:15:15.317Z,13.1
2018-11-07T18:18:15.779Z,13.1
2018-11-07T18:21:15.678Z,13.0
2018-11-07T18:24:15.670Z,13.0
2018-11-07T18:27:16.142Z,12.9
2018-11-07T18:30:15.513Z,12.9
2018-11-07T18:33:15.839Z,12.9
2018-11-07T18:36:15.068Z,12.9
2018-11-07T18:39:15.265Z,12.9
2018-11-07T18:42:15.378Z,12.9
2018-11-07T18:45:15.692Z,12.8
2018-11-07T18:48:15.695Z,12.8
2018-11-07T18:51:15.989Z,12.7
2018-11-07T18:54:15.395Z,12.7
2018-11-07T18:57:15.484Z,12.6
2018-11-07T19:00:15.510Z,12.6
2018-11-07T19:03:15.483Z,12.6
2018-11-07T19:06:15.609Z,12.6
2018-11-07T19:09:15.909Z,12.5
2018-11-07T19:12:15.082Z,12.5
2018-11-07T19:15:15.676Z,12.5
2018-11-07T19:18:15.925Z,12.4
2018-11-07T19:21:15.454Z,12.5
2018-11-07T19:24:15.568Z,12.7
2018-11-07T19:27:15.554Z,12.7
2018-11-07T19:30:15.854Z,12.7
2018-11-07T19:33:15.264Z,12.8
2018-11-07T19:36:15.333Z,12.9
2018-11-07T19:39:15.557Z,12.9
2018-11-07T19:42:15.651Z,12.9
2018-11-07T19:45:15.795Z,12.9
2018-11-07T19:48:15.280Z,12.8
2018-11-07T19:51:15.723Z,12.8
2018-11-07T19:54:15.864Z,12.8
2018-11-07T19:57:15.218Z,12.8
2018-11-07T20:00:15.311Z,12.8
2018-11-07T20:03:15.471Z,12.8
2018-11-07T20:06:15.589Z,12.8
2018-11-07T20:09:15.607Z,12.8
2018-11-07T20:12:16.017Z,12.8
2018-11-07T20:15:15.547Z,12.8
2018-11-07T20:18:15.796Z,12.9
2018-11-07T20:21:15.892Z,12.9
2018-11-07T20:24:15.089Z,12.9
2018-11-07T20:27:15.091Z,12.9
2018-11-07T20:30:15.218Z,12.7
2018-11-07T20:33:15.468Z,12.7
2018-11-07T20:36:15.676Z,12.6
2018-11-07T20:39:15.142Z,12.6
2018-11-07T20:42:15.234Z,12.6
2018-11-07T20:45:15.760Z,12.6
2018-11-07T20:48:15.946Z,12.5
2018-11-07T20:51:15.050Z,12.5
2018-11-07T20:54:15.239Z,12.5
2018-11-07T20:57:15.408Z,12.5
2018-11-07T21:00:15.686Z,12.4
2018-11-07T21:03:15.683Z,12.4
2018-11-07T21:06:16.217Z,12.3
2018-11-07T21:09:15.454Z,12.3
2018-11-07T21:12:15.467Z,12.3
2018-11-07T21:15:15.363Z,12.2
2018-11-07T21:18:15.766Z,12.2
2018-11-07T21:21:15.228Z,12.2
2018-11-07T21:24:15.360Z,12.2
2018-11-07T21:27:15.538Z,12.2
2018-11-07T21:30:15.520Z,12.2
2018-11-07T21:33:15.772Z,12.3
2018-11-07T21:36:15.945Z,12.2
2018-11-07T21:39:15.791Z,12.3
2018-11-07T21:42:15.204Z,12.3
2018-11-07T21:45:15.284Z,12.3
2018-11-07T21:48:15.532Z,12.3
2018-11-07T21:51:15.175Z,12.3
2018-11-07T21:54:15.520Z,12.3
2018-11-07T21:57:15.908Z,12.4
2018-11-07T22:00:15.262Z,12.4
2018-11-07T22:03:15.512Z,12.5
2018-11-07T22:06:16.063Z,12.5
2018-11-07T22:09:15.795Z,12.5
2018-11-07T22:12:15.102Z,12.5
2018-11-07T22:15:15.215Z,12.5
2018-11-07T22:18:15.536Z,12.6
2018-11-07T22:21:15.623Z,12.6
2018-11-07T22:24:15.733Z,12.6
2018-11-07T22:27:15.804Z,12.5
2018-11-07T22:30:15.130Z,12.5
2018-11-07T22:33:15.794Z,12.4
2018-11-07T22:36:14.991Z,12.4
2018-11-07T22:39:15.872Z,12.4
2018-11-07T22:42:15.874Z,12.4
2018-11-07T22:45:15.338Z,12.4
2018-11-07T22:48:15.806Z,12.3
2018-11-07T22:51:15.436Z,12.3
2018-11-07T22:54:15.260Z,12.2
2018-11-07T22:57:15.491Z,12.2
2018-11-07T23:00:15.681Z,12.1
2018-11-07T23:03:15.263Z,12.1
2018-11-07T23:06:15.525Z,12.1
2018-11-07T23:09:15.785Z,12.2
2018-11-07T23:12:15.929Z,12.2
2018-11-07T23:15:15.732Z,12.2
2018-11-07T23:18:15.701Z,12.2
2018-11-07T23:21:15.900Z,12.1
2018-11-07T23:24:15.107Z,12.1
2018-11-07T23:27:15.161Z,12.1
2018-11-07T23:30:15.609Z,12.1
2018-11-07T23:33:15.599Z,12.2
2018-11-07T23:36:15.706Z,12.3
2018-11-07T23:39:15.802Z,12.3
2018-11-07T23:42:15.757Z,12.3
2018-11-07T23:45:15.726Z,12.3
2018-11-07T23:48:14.973Z,12.2
2018-11-07T23:51:15.150Z,12.2
2018-11-07T23:54:15.255Z,12.2
2018-11-07T23:57:15.714Z,12.3
